Time;durP1;ratioP1;P1;durP2;ratioP2;P2;SDS_P1;SDS_P2;PMS_P1;PMS_P2;Temp;Humidity;BMP_temperature;BMP_pressure;BME280_temperature;BME280_humidity;BME280_pressure;Samples;Min_cycle;Max_cycle;Signal;HPM_P1;HPM_P2
2022/11/04 00:18:10;;;;;;;1.85;0.60;;;;;;;17.71;88.23;99372.31;20721088;28;20053;-85
2022/11/04 00:38:33;;;;;;;0.75;0.60;;;;;;;17.51;88.31;99409.53;20821437;28;20049;-84
2022/11/04 00:48:35;;;;;;;1.25;0.70;;;;;;;17.70;88.32;99478.31;20821991;28;20045;-84
2022/11/04 00:58:36;;;;;;;0.85;0.60;;;;;;;17.70;88.46;99516.00;20820366;28;20042;-84
2022/11/04 01:08:39;;;;;;;1.00;0.60;;;;;;;17.56;88.27;99536.34;20820217;28;20548;-84
2022/11/04 01:18:40;;;;;;;1.17;0.70;;;;;;;17.49;88.37;99519.19;20820887;28;20140;-84
2022/11/04 01:28:42;;;;;;;1.15;0.70;;;;;;;17.50;88.33;99540.53;20821012;28;20053;-84
2022/11/04 01:38:44;;;;;;;0.88;0.70;;;;;;;17.21;88.28;99497.97;20814312;28;20056;-84
2022/11/04 01:48:47;;;;;;;0.77;0.70;;;;;;;17.64;88.39;99568.63;20806533;28;20064;-84
2022/11/04 01:58:52;;;;;;;0.70;0.55;;;;;;;17.22;88.49;99519.28;20804976;28;20064;-85
2022/11/04 02:08:53;;;;;;;0.60;0.50;;;;;;;17.69;88.47;99600.44;20805015;28;20088;-84
2022/11/04 02:19:23;;;;;;;0.80;0.63;;;;;;;17.69;88.56;99638.13;20803111;28;20410;-85
2022/11/04 02:29:38;;;;;;;0.90;0.50;;;;;;;17.69;88.48;99646.19;20801710;28;20634;-84
2022/11/04 02:39:49;;;;;;;1.40;0.70;;;;;;;17.57;88.54;99652.88;20801938;28;20080;-84
2022/11/04 02:49:57;;;;;;;0.77;0.57;;;;;;;17.68;88.65;99683.00;20800132;28;20099;-84
2022/11/04 03:00:02;;;;;;;1.70;0.70;;;;;;;17.69;88.60;99706.22;20799711;28;20075;-85
2022/11/04 03:10:07;;;;;;;1.17;0.50;;;;;;;17.69;88.39;99708.09;20802056;28;20148;-85
2022/11/04 03:20:16;;;;;;;1.35;0.50;;;;;;;17.67;88.50;99720.84;20782320;28;20096;-84
2022/11/04 03:30:19;;;;;;;0.55;0.32;;;;;;;17.67;88.48;99727.09;20797394;28;20041;-85
2022/11/04 03:40:21;;;;;;;0.43;0.43;;;;;;;17.67;88.55;99756.69;20796358;28;20076;-84
2022/11/04 03:50:30;;;;;;;0.80;0.40;;;;;;;17.67;88.48;99782.75;20797666;28;20405;-84
2022/11/04 04:00:39;;;;;;;0.50;0.40;;;;;;;17.66;88.62;99794.53;20794905;28;20045;-84
2022/11/04 04:10:51;;;;;;;0.40;0.38;;;;;;;17.40;88.51;99768.53;20794915;28;20072;-84
2022/11/04 04:20:54;;;;;;;0.98;0.60;;;;;;;17.23;88.45;99748.75;20795435;28;20072;-85
2022/11/04 04:30:55;;;;;;;1.33;0.40;;;;;;;17.65;88.61;99835.91;20795401;28;20072;-85
2022/11/04 04:51:42;;;;;;;0.70;0.50;;;;;;;17.64;88.57;99872.75;20700668;28;20070;-84
2022/11/04 05:01:44;;;;;;;0.73;0.50;;;;;;;17.64;88.55;99874.59;20727794;28;20046;-84
2022/11/04 05:11:45;;;;;;;0.38;0.38;;;;;;;17.64;88.60;99885.34;20713806;28;20116;-85
2022/11/04 05:21:47;;;;;;;1.00;0.40;;;;;;;17.54;88.39;99880.94;20726877;28;20050;-85
2022/11/04 05:31:49;;;;;;;0.65;0.40;;;;;;;17.64;88.53;99920.34;20741301;28;20049;-85
2022/11/04 05:41:50;;;;;;;0.50;0.40;;;;;;;17.66;88.56;99923.72;20781819;28;20095;-87
2022/11/04 05:51:51;;;;;;;1.00;0.50;;;;;;;17.69;87.88;99924.25;20787908;28;20060;-93
2022/11/04 06:01:53;;;;;;;0.47;0.30;;;;;;;17.74;86.97;99936.38;20772431;28;20098;-93
2022/11/04 06:11:54;;;;;;;1.15;0.40;;;;;;;17.76;86.11;99956.78;20792553;28;20046;-93
2022/11/04 06:21:56;;;;;;;0.73;0.40;;;;;;;17.79;85.87;99978.00;20784899;28;20057;-86
2022/11/04 06:31:57;;;;;;;1.67;0.40;;;;;;;17.80;85.65;99987.75;20770873;28;20413;-89
2022/11/04 06:41:59;;;;;;;3.40;0.52;;;;;;;17.83;86.61;100011.69;20780573;28;20183;-89
2022/11/04 06:52:03;;;;;;;1.98;1.17;;;;;;;17.85;86.35;100032.22;20791631;28;20045;-89
2022/11/04 07:02:05;;;;;;;1.00;0.60;;;;;;;17.85;86.01;100045.66;20794076;28;20981;-87
2022/11/04 07:12:06;;;;;;;3.72;0.85;;;;;;;17.86;87.29;100063.53;20769768;28;20420;-85
2022/11/04 07:22:08;;;;;;;4.53;0.77;;;;;;;17.34;89.83;99979.00;20664379;28;20104;-92
2022/11/04 07:32:09;;;;;;;1.52;0.57;;;;;;;17.88;94.05;100088.44;20686600;28;20061;-90
2022/11/04 07:42:11;;;;;;;7.07;1.38;;;;;;;17.90;98.05;100099.91;20748361;28;20057;-88
2022/11/04 07:52:13;;;;;;;15.63;2.80;;;;;;;17.94;100.00;100121.00;20767151;28;20049;-83
2022/11/04 08:02:15;;;;;;;4.38;0.93;;;;;;;17.98;100.00;100116.13;20773381;28;20041;-90
2022/11/04 08:12:24;;;;;;;4.68;1.35;;;;;;;17.98;100.00;100122.38;20765834;28;20057;-90
2022/11/04 08:22:25;;;;;;;4.38;1.50;;;;;;;17.97;100.00;100131.44;20778914;28;20057;-91
2022/11/04 08:32:34;;;;;;;4.38;1.85;;;;;;;17.82;100.00;100122.19;20816071;28;20052;-91
2022/11/04 08:42:35;;;;;;;5.05;0.90;;;;;;;17.92;100.00;100151.75;20822342;28;20084;-90
2022/11/04 08:52:37;;;;;;;5.60;1.00;;;;;;;17.91;99.85;100158.13;20810405;28;20081;-92
2022/11/04 09:02:39;;;;;;;9.98;1.67;;;;;;;17.76;95.65;100138.97;20830879;28;20097;-94
2022/11/04 09:12:41;;;;;;;14.05;2.17;;;;;;;17.92;94.47;100159.84;20801392;28;20054;-92
2022/11/04 09:22:42;;;;;;;9.20;1.90;;;;;;;17.93;93.47;100183.94;20777608;28;20045;-90
2022/11/04 09:32:46;;;;;;;11.52;2.40;;;;;;;18.06;92.53;100215.03;20804106;28;20038;-92
2022/11/04 09:42:59;;;;;;;9.73;2.10;;;;;;;17.92;92.03;100227.16;20811715;28;20490;-93
2022/11/04 09:53:04;;;;;;;13.25;2.45;;;;;;;18.09;91.47;100258.66;20814637;28;20053;-92
2022/11/04 10:03:39;;;;;;;10.10;2.78;;;;;;;18.10;90.97;100260.34;20801215;28;20049;-92
2022/11/04 10:13:51;;;;;;;12.13;2.53;;;;;;;18.11;90.47;100263.91;20774532;28;20049;-86
2022/11/04 10:24:08;;;;;;;9.02;2.70;;;;;;;18.14;90.07;100287.00;20778962;28;20049;-85
2022/11/04 10:34:22;;;;;;;10.13;2.22;;;;;;;18.14;89.46;100295.09;20754506;28;20120;-84
2022/11/04 10:44:28;;;;;;;9.97;2.00;;;;;;;18.19;89.09;100315.16;20752436;28;20502;-86
2022/11/04 10:54:38;;;;;;;11.38;2.15;;;;;;;18.21;88.53;100293.47;20750984;28;20049;-86
2022/11/04 11:04:40;;;;;;;7.57;2.67;;;;;;;18.23;88.46;100327.31;20753729;28;20516;-86
2022/11/04 11:14:42;;;;;;;6.95;2.10;;;;;;;18.16;88.29;100334.31;20768586;28;20128;-87
2022/11/04 11:24:43;;;;;;;9.93;2.10;;;;;;;18.25;88.22;100343.34;20764154;28;20048;-85
2022/11/04 11:34:47;;;;;;;10.75;3.08;;;;;;;18.21;87.97;100358.13;20761375;28;20056;-85
2022/11/04 11:44:53;;;;;;;6.03;1.75;;;;;;;18.15;88.03;100351.50;20769145;28;20302;-85
2022/11/04 11:55:02;;;;;;;6.88;2.35;;;;;;;17.64;88.09;100270.25;20734041;28;20586;-89
2022/11/04 12:05:08;;;;;;;7.88;2.38;;;;;;;18.10;88.17;100362.72;20733264;28;20521;-91
2022/11/04 12:15:32;;;;;;;7.60;1.98;;;;;;;18.13;88.06;100366.13;20759684;28;20053;-90
2022/11/04 12:26:00;;;;;;;6.90;2.10;;;;;;;18.14;88.33;100389.38;20753487;28;20064;-91
2022/11/04 12:36:25;;;;;;;7.75;1.80;;;;;;;18.13;88.34;100426.22;20744464;28;20134;-88
2022/11/04 12:46:51;;;;;;;5.70;1.60;;;;;;;18.13;88.50;100436.16;20750546;28;20833;-87
2022/11/04 12:57:05;;;;;;;5.03;1.50;;;;;;;17.89;89.35;100380.94;20729956;28;20518;-88
2022/11/04 13:07:09;;;;;;;5.63;1.53;;;;;;;18.08;90.28;100434.75;20745044;28;20498;-87
2022/11/04 13:17:16;;;;;;;3.83;1.80;;;;;;;18.06;91.07;100450.22;20762134;28;20419;-89
2022/11/04 13:27:20;;;;;;;5.32;1.58;;;;;;;18.05;91.77;100451.19;20752980;28;20060;-88
2022/11/04 13:37:34;;;;;;;4.60;1.23;;;;;;;18.03;92.16;100446.97;20779921;28;20057;-88
2022/11/04 13:47:44;;;;;;;3.28;1.27;;;;;;;17.43;92.26;100360.16;20763979;28;20049;-87
2022/11/04 13:57:52;;;;;;;4.22;1.48;;;;;;;18.02;92.67;100445.28;20778479;28;20050;-89
2022/11/04 14:18:02;;;;;;;4.40;1.27;;;;;;;17.94;93.28;100462.13;20786232;28;20132;-90
2022/11/04 14:28:08;;;;;;;2.63;1.10;;;;;;;18.02;93.36;100483.00;20777149;28;20410;-87
2022/11/04 14:38:30;;;;;;;2.10;0.98;;;;;;;18.01;93.55;100495.59;20787658;28;20115;-88
2022/11/04 14:48:32;;;;;;;2.78;1.20;;;;;;;17.73;92.83;100475.81;20815911;28;20074;-94
2022/11/04 14:58:34;;;;;;;3.20;0.75;;;;;;;18.03;92.60;100522.41;20813022;28;20053;-91
2022/11/04 15:08:39;;;;;;;3.25;1.05;;;;;;;18.04;92.21;100535.69;20779817;28;20045;-92
2022/11/04 15:18:41;;;;;;;2.23;0.67;;;;;;;17.95;91.98;100541.94;20742234;28;20049;-94
2022/11/04 15:28:45;;;;;;;4.75;1.20;;;;;;;18.07;91.50;100578.50;20742721;28;20814;-87
2022/11/04 15:39:06;;;;;;;3.83;0.70;;;;;;;17.99;91.64;100586.44;20744704;28;20055;-87
2022/11/04 15:49:23;;;;;;;4.68;1.30;;;;;;;17.46;91.91;100497.09;20690329;28;20041;-85
2022/11/04 15:59:33;;;;;;;13.07;5.05;;;;;;;17.88;92.42;100587.44;20718386;28;20049;-85
2022/11/04 16:09:47;;;;;;;11.48;4.97;;;;;;;18.09;92.50;100630.41;20742673;28;20049;-87
2022/11/04 16:20:15;;;;;;;11.00;4.07;;;;;;;18.09;93.13;100633.09;20732679;28;20053;-86
2022/11/04 16:30:19;;;;;;;13.75;3.78;;;;;;;18.10;93.57;100650.94;20732875;28;20130;-86
2022/11/04 16:40:21;;;;;;;6.80;2.45;;;;;;;17.94;94.45;100629.13;20751032;28;20406;-89
2022/11/04 16:50:24;;;;;;;6.50;2.95;;;;;;;18.14;95.33;100669.56;20764607;28;20056;-88
2022/11/04 17:00:27;;;;;;;5.50;2.50;;;;;;;18.14;95.73;100677.63;20716765;28;20053;-88
2022/11/04 17:10:28;;;;;;;6.88;2.33;;;;;;;18.15;96.55;100690.09;20721782;28;20098;-89
2022/11/04 17:20:30;;;;;;;5.68;1.73;;;;;;;17.85;96.83;100659.59;20736390;28;20544;-90
2022/11/04 17:30:32;;;;;;;4.75;1.73;;;;;;;17.94;98.48;100685.69;20741830;28;20504;-90
2022/11/04 17:43:58;;;;;;;5.18;1.45;;;;;;;17.89;98.56;100682.56;20735594;28;20049;-90
2022/11/04 17:50:55;;;;;;;3.33;1.48;;;;;;;18.22;98.97;100739.72;20735721;28;20045;-87
2022/11/04 18:00:56;;;;;;;4.20;1.42;;;;;;;18.21;98.87;100744.25;20757793;28;20050;-86
2022/11/04 18:11:07;;;;;;;4.43;1.23;;;;;;;18.22;98.53;100755.91;20742301;28;20552;-85
2022/11/04 18:21:09;;;;;;;2.63;1.10;;;;;;;18.20;98.12;100755.19;20768132;28;20053;-84
2022/11/04 18:31:16;;;;;;;3.05;1.17;;;;;;;18.17;97.98;100760.88;20769171;28;20502;-88
2022/11/04 18:41:18;;;;;;;3.20;1.35;;;;;;;18.18;96.68;100759.88;20770217;28;20060;-88
2022/11/04 18:51:21;;;;;;;3.25;1.05;;;;;;;18.19;95.52;100765.09;20783378;28;20056;-89
2022/11/04 19:01:31;;;;;;;3.20;1.38;;;;;;;18.19;94.57;100783.13;20762803;28;20056;-89
2022/11/04 19:11:35;;;;;;;2.10;0.95;;;;;;;18.04;94.02;100767.34;20760340;28;20057;-88
2022/11/04 19:21:36;;;;;;;2.57;0.90;;;;;;;17.57;93.20;100675.59;20741043;28;20521;-88
2022/11/04 19:31:39;;;;;;;5.75;1.50;;;;;;;17.96;92.49;100780.66;20711197;28;20049;-89
2022/11/04 19:52:00;;;;;;;3.15;1.48;;;;;;;18.18;92.47;100814.59;20697736;28;20704;-87
2022/11/04 20:02:02;;;;;;;3.42;1.42;;;;;;;18.14;92.38;100839.28;20801616;28;20045;-86
2022/11/04 20:22:23;;;;;;;3.38;1.70;;;;;;;17.93;93.05;100849.13;20796078;28;20052;-87
2022/11/04 20:32:25;;;;;;;2.53;1.20;;;;;;;17.52;93.32;100805.22;20795771;28;20140;-87
2022/11/04 20:42:26;;;;;;;3.72;1.40;;;;;;;17.91;93.42;100879.88;20796564;28;20437;-86
2022/11/04 20:52:28;;;;;;;3.08;1.38;;;;;;;17.95;93.75;100903.72;20810320;28;20398;-86
2022/11/04 21:02:29;;;;;;;2.53;1.20;;;;;;;17.93;93.80;100916.47;20809283;28;20053;-87
2022/11/04 21:12:31;;;;;;;3.63;1.73;;;;;;;17.54;94.13;100881.28;20809916;28;20510;-86
2022/11/04 21:22:32;;;;;;;3.25;1.33;;;;;;;17.90;94.10;100938.28;20809172;28;20041;-87
2022/11/04 21:32:34;;;;;;;2.40;1.27;;;;;;;17.88;94.15;100956.41;20809411;28;20522;-86
2022/11/04 21:42:35;;;;;;;2.60;1.20;;;;;;;17.88;94.30;100974.41;20790472;28;20057;-87
2022/11/04 21:52:37;;;;;;;2.22;1.13;;;;;;;17.87;94.09;100980.78;20805599;28;20076;-87
2022/11/04 22:02:42;;;;;;;3.72;1.23;;;;;;;17.86;94.23;100995.25;20805235;28;20107;-87
2022/11/04 22:12:43;;;;;;;;;;;;;;;17.86;94.10;101014.09;20804561;28;20430;-87
2022/11/04 22:22:50;;;;;;;1.90;1.08;;;;;;;17.61;94.21;100987.44;20804975;28;19921;-86
2022/11/04 22:32:52;;;;;;;2.00;1.00;;;;;;;17.81;94.00;101020.72;20802812;28;20053;-87
2022/11/04 22:42:53;;;;;;;2.33;1.20;;;;;;;17.22;94.06;100918.06;20803719;28;20430;-88
2022/11/04 22:52:55;;;;;;;2.50;1.00;;;;;;;17.79;94.06;101020.00;20800505;28;20053;-87
2022/11/04 23:02:56;;;;;;;2.50;0.93;;;;;;;17.30;94.02;100946.19;20799965;28;20045;-87
